sensor_id;sensor_type;location;lat;lon;timestamp;temperature;humidity
32400;DHT22;45045;45.440;9.178;2023-08-31T00:00:09;26.30;88.50
32400;DHT22;45045;45.440;9.178;2023-08-31T00:02:36;26.30;88.80
32400;DHT22;45045;45.440;9.178;2023-08-31T00:05:02;26.30;88.90
32400;DHT22;45045;45.440;9.178;2023-08-31T00:07:29;26.30;89.10
32400;DHT22;45045;45.440;9.178;2023-08-31T00:09:55;26.30;89.20
32400;DHT22;45045;45.440;9.178;2023-08-31T00:12:20;26.30;89.30
32400;DHT22;45045;45.440;9.178;2023-08-31T00:14:49;26.30;89.50
32400;DHT22;45045;45.440;9.178;2023-08-31T00:17:15;26.30;89.50
32400;DHT22;45045;45.440;9.178;2023-08-31T00:19:40;26.20;89.70
32400;DHT22;45045;45.440;9.178;2023-08-31T00:22:06;26.30;89.80
32400;DHT22;45045;45.440;9.178;2023-08-31T00:24:32;26.20;90.00
32400;DHT22;45045;45.440;9.178;2023-08-31T00:27:02;26.20;90.00
32400;DHT22;45045;45.440;9.178;2023-08-31T00:29:32;26.20;90.10
32400;DHT22;45045;45.440;9.178;2023-08-31T00:31:57;26.20;90.20
32400;DHT22;45045;45.440;9.178;2023-08-31T00:34:23;26.20;90.20
32400;DHT22;45045;45.440;9.178;2023-08-31T00:36:48;26.20;90.40
32400;DHT22;45045;45.440;9.178;2023-08-31T00:39:17;26.20;90.50
32400;DHT22;45045;45.440;9.178;2023-08-31T00:41:45;26.20;90.50
32400;DHT22;45045;45.440;9.178;2023-08-31T00:44:11;26.20;90.60
32400;DHT22;45045;45.440;9.178;2023-08-31T00:46:37;26.20;91.00
32400;DHT22;45045;45.440;9.178;2023-08-31T00:49:03;26.20;90.70
32400;DHT22;45045;45.440;9.178;2023-08-31T00:51:31;26.10;90.80
32400;DHT22;45045;45.440;9.178;2023-08-31T00:53:58;26.10;90.80
32400;DHT22;45045;45.440;9.178;2023-08-31T00:56:25;26.10;90.90
32400;DHT22;45045;45.440;9.178;2023-08-31T00:58:51;26.10;91.00
32400;DHT22;45045;45.440;9.178;2023-08-31T01:06:49;26.00;91.10
32400;DHT22;45045;45.440;9.178;2023-08-31T01:09:40;26.00;91.10
32400;DHT22;45045;45.440;9.178;2023-08-31T01:12:22;26.00;91.20
32400;DHT22;45045;45.440;9.178;2023-08-31T01:14:59;26.00;91.30
32400;DHT22;45045;45.440;9.178;2023-08-31T01:17:29;26.00;91.30
32400;DHT22;45045;45.440;9.178;2023-08-31T01:19:58;26.00;91.30
32400;DHT22;45045;45.440;9.178;2023-08-31T01:22:38;26.00;91.30
32400;DHT22;45045;45.440;9.178;2023-08-31T01:25:07;26.00;91.30
32400;DHT22;45045;45.440;9.178;2023-08-31T01:27:35;26.00;91.40
32400;DHT22;45045;45.440;9.178;2023-08-31T01:30:05;26.00;91.40
32400;DHT22;45045;45.440;9.178;2023-08-31T01:32:31;26.00;91.50
32400;DHT22;45045;45.440;9.178;2023-08-31T01:34:57;26.00;91.60
32400;DHT22;45045;45.440;9.178;2023-08-31T01:43:03;25.90;91.80
32400;DHT22;45045;45.440;9.178;2023-08-31T01:45:32;25.90;91.80
32400;DHT22;45045;45.440;9.178;2023-08-31T01:47:59;25.90;91.90
32400;DHT22;45045;45.440;9.178;2023-08-31T01:50:25;25.90;92.30
32400;DHT22;45045;45.440;9.178;2023-08-31T01:52:51;25.90;92.00
32400;DHT22;45045;45.440;9.178;2023-08-31T01:55:18;25.90;92.00
32400;DHT22;45045;45.440;9.178;2023-08-31T01:57:44;25.80;92.00
32400;DHT22;45045;45.440;9.178;2023-08-31T02:00:11;25.90;92.00
32400;DHT22;45045;45.440;9.178;2023-08-31T02:02:36;25.80;92.00
32400;DHT22;45045;45.440;9.178;2023-08-31T02:05:02;25.80;92.00
32400;DHT22;45045;45.440;9.178;2023-08-31T02:07:29;25.80;92.00
32400;DHT22;45045;45.440;9.178;2023-08-31T02:09:55;25.80;92.00
32400;DHT22;45045;45.440;9.178;2023-08-31T02:12:21;25.80;92.00
32400;DHT22;45045;45.440;9.178;2023-08-31T02:14:47;25.80;92.00
32400;DHT22;45045;45.440;9.178;2023-08-31T02:17:13;25.80;92.10
32400;DHT22;45045;45.440;9.178;2023-08-31T02:19:38;25.80;92.10
32400;DHT22;45045;45.440;9.178;2023-08-31T02:22:04;25.80;92.10
32400;DHT22;45045;45.440;9.178;2023-08-31T02:24:30;25.80;92.10
32400;DHT22;45045;45.440;9.178;2023-08-31T02:26:56;25.80;92.10
32400;DHT22;45045;45.440;9.178;2023-08-31T02:29:22;25.80;92.20
32400;DHT22;45045;45.440;9.178;2023-08-31T02:31:48;25.70;92.10
32400;DHT22;45045;45.440;9.178;2023-08-31T02:34:14;25.80;92.20
32400;DHT22;45045;45.440;9.178;2023-08-31T02:36:39;25.70;92.20
32400;DHT22;45045;45.440;9.178;2023-08-31T02:39:05;25.70;92.20
32400;DHT22;45045;45.440;9.178;2023-08-31T02:41:31;25.70;92.20
32400;DHT22;45045;45.440;9.178;2023-08-31T02:43:57;25.70;92.30
32400;DHT22;45045;45.440;9.178;2023-08-31T02:46:23;25.70;92.40
32400;DHT22;45045;45.440;9.178;2023-08-31T02:48:49;25.70;92.40
32400;DHT22;45045;45.440;9.178;2023-08-31T02:51:15;25.70;92.40
32400;DHT22;45045;45.440;9.178;2023-08-31T02:53:40;25.70;92.50
32400;DHT22;45045;45.440;9.178;2023-08-31T02:56:06;25.70;92.50
32400;DHT22;45045;45.440;9.178;2023-08-31T02:58:33;25.60;92.50
32400;DHT22;45045;45.440;9.178;2023-08-31T03:01:25;25.60;92.50
32400;DHT22;45045;45.440;9.178;2023-08-31T03:03:51;25.60;92.60
32400;DHT22;45045;45.440;9.178;2023-08-31T03:06:17;25.60;92.60
32400;DHT22;45045;45.440;9.178;2023-08-31T03:08:42;25.60;92.60
32400;DHT22;45045;45.440;9.178;2023-08-31T03:11:08;25.60;92.70
32400;DHT22;45045;45.440;9.178;2023-08-31T03:13:34;25.60;92.70
32400;DHT22;45045;45.440;9.178;2023-08-31T03:16:00;25.60;92.70
32400;DHT22;45045;45.440;9.178;2023-08-31T03:18:26;25.60;92.70
32400;DHT22;45045;45.440;9.178;2023-08-31T03:20:54;25.60;92.80
32400;DHT22;45045;45.440;9.178;2023-08-31T03:23:19;25.60;92.80
32400;DHT22;45045;45.440;9.178;2023-08-31T03:25:45;25.60;92.80
32400;DHT22;45045;45.440;9.178;2023-08-31T03:28:10;25.60;93.20
32400;DHT22;45045;45.440;9.178;2023-08-31T03:30:36;25.60;92.90
32400;DHT22;45045;45.440;9.178;2023-08-31T03:33:02;25.60;92.90
32400;DHT22;45045;45.440;9.178;2023-08-31T03:35:28;25.60;92.90
32400;DHT22;45045;45.440;9.178;2023-08-31T03:37:55;25.60;92.90
32400;DHT22;45045;45.440;9.178;2023-08-31T03:40:20;25.60;93.00
32400;DHT22;45045;45.440;9.178;2023-08-31T03:42:47;25.60;93.00
32400;DHT22;45045;45.440;9.178;2023-08-31T03:45:12;25.60;93.00
32400;DHT22;45045;45.440;9.178;2023-08-31T03:47:38;25.60;93.00
32400;DHT22;45045;45.440;9.178;2023-08-31T03:50:04;25.50;93.00
32400;DHT22;45045;45.440;9.178;2023-08-31T03:52:30;25.60;93.10
32400;DHT22;45045;45.440;9.178;2023-08-31T03:54:56;25.60;93.10
32400;DHT22;45045;45.440;9.178;2023-08-31T03:57:22;25.60;93.10
32400;DHT22;45045;45.440;9.178;2023-08-31T03:59:47;25.50;93.10
32400;DHT22;45045;45.440;9.178;2023-08-31T04:02:13;25.50;93.10
32400;DHT22;45045;45.440;9.178;2023-08-31T04:04:39;25.50;93.10
32400;DHT22;45045;45.440;9.178;2023-08-31T04:07:05;25.50;93.10
32400;DHT22;45045;45.440;9.178;2023-08-31T04:09:32;25.50;93.20
32400;DHT22;45045;45.440;9.178;2023-08-31T04:11:57;25.50;93.20
32400;DHT22;45045;45.440;9.178;2023-08-31T04:14:23;25.50;93.20
32400;DHT22;45045;45.440;9.178;2023-08-31T04:16:48;25.50;93.20
32400;DHT22;45045;45.440;9.178;2023-08-31T04:19:16;25.50;93.30
32400;DHT22;45045;45.440;9.178;2023-08-31T04:21:42;25.50;93.30
32400;DHT22;45045;45.440;9.178;2023-08-31T04:24:08;25.40;93.20
32400;DHT22;45045;45.440;9.178;2023-08-31T04:26:34;25.50;93.30
32400;DHT22;45045;45.440;9.178;2023-08-31T04:29:02;25.40;93.20
32400;DHT22;45045;45.440;9.178;2023-08-31T04:31:28;25.50;93.30
32400;DHT22;45045;45.440;9.178;2023-08-31T04:33:54;25.40;93.30
32400;DHT22;45045;45.440;9.178;2023-08-31T04:36:21;25.40;93.40
32400;DHT22;45045;45.440;9.178;2023-08-31T04:38:48;25.30;93.60
32400;DHT22;45045;45.440;9.178;2023-08-31T04:41:14;25.30;93.60
32400;DHT22;45045;45.440;9.178;2023-08-31T04:43:40;25.30;93.70
32400;DHT22;45045;45.440;9.178;2023-08-31T04:46:05;25.30;93.70
32400;DHT22;45045;45.440;9.178;2023-08-31T04:48:32;25.30;93.60
32400;DHT22;45045;45.440;9.178;2023-08-31T04:50:58;25.30;93.60
32400;DHT22;45045;45.440;9.178;2023-08-31T04:53:23;25.40;93.70
32400;DHT22;45045;45.440;9.178;2023-08-31T04:55:49;25.40;93.60
32400;DHT22;45045;45.440;9.178;2023-08-31T04:58:15;25.30;93.70
32400;DHT22;45045;45.440;9.178;2023-08-31T05:00:40;25.40;93.70
32400;DHT22;45045;45.440;9.178;2023-08-31T05:03:06;25.40;93.80
32400;DHT22;45045;45.440;9.178;2023-08-31T05:05:32;25.40;93.80
32400;DHT22;45045;45.440;9.178;2023-08-31T05:07:57;25.30;93.80
32400;DHT22;45045;45.440;9.178;2023-08-31T05:10:24;25.30;93.90
32400;DHT22;45045;45.440;9.178;2023-08-31T05:12:49;25.30;93.90
32400;DHT22;45045;45.440;9.178;2023-08-31T05:15:15;25.30;94.00
32400;DHT22;45045;45.440;9.178;2023-08-31T05:17:41;25.30;94.00
32400;DHT22;45045;45.440;9.178;2023-08-31T05:20:07;25.30;94.00
32400;DHT22;45045;45.440;9.178;2023-08-31T05:22:35;25.30;94.10
32400;DHT22;45045;45.440;9.178;2023-08-31T05:25:01;25.30;94.20
32400;DHT22;45045;45.440;9.178;2023-08-31T05:27:27;25.30;94.10
32400;DHT22;45045;45.440;9.178;2023-08-31T05:29:52;25.30;94.20
32400;DHT22;45045;45.440;9.178;2023-08-31T05:32:18;25.30;94.20
32400;DHT22;45045;45.440;9.178;2023-08-31T05:34:43;25.30;94.20
32400;DHT22;45045;45.440;9.178;2023-08-31T05:37:09;25.30;94.30
32400;DHT22;45045;45.440;9.178;2023-08-31T05:39:35;25.30;94.30
32400;DHT22;45045;45.440;9.178;2023-08-31T05:42:00;25.30;94.30
32400;DHT22;45045;45.440;9.178;2023-08-31T05:44:26;25.30;94.30
32400;DHT22;45045;45.440;9.178;2023-08-31T05:46:52;25.30;94.30
32400;DHT22;45045;45.440;9.178;2023-08-31T05:49:18;25.30;94.40
32400;DHT22;45045;45.440;9.178;2023-08-31T05:51:43;25.30;94.40
32400;DHT22;45045;45.440;9.178;2023-08-31T05:54:09;25.20;94.40
32400;DHT22;45045;45.440;9.178;2023-08-31T05:56:38;25.30;94.40
32400;DHT22;45045;45.440;9.178;2023-08-31T05:59:05;25.20;94.40
32400;DHT22;45045;45.440;9.178;2023-08-31T06:01:31;25.20;94.40
32400;DHT22;45045;45.440;9.178;2023-08-31T06:04:00;25.20;94.40
32400;DHT22;45045;45.440;9.178;2023-08-31T06:06:25;25.20;94.50
32400;DHT22;45045;45.440;9.178;2023-08-31T06:08:51;25.20;94.50
32400;DHT22;45045;45.440;9.178;2023-08-31T06:11:17;25.20;94.50
32400;DHT22;45045;45.440;9.178;2023-08-31T06:13:42;25.20;94.50
32400;DHT22;45045;45.440;9.178;2023-08-31T06:16:08;25.30;94.60
32400;DHT22;45045;45.440;9.178;2023-08-31T06:18:34;25.30;94.60
32400;DHT22;45045;45.440;9.178;2023-08-31T06:20:59;25.20;94.50
32400;DHT22;45045;45.440;9.178;2023-08-31T06:23:25;25.20;94.50
32400;DHT22;45045;45.440;9.178;2023-08-31T06:25:51;25.20;94.50
32400;DHT22;45045;45.440;9.178;2023-08-31T06:28:17;25.20;94.60
32400;DHT22;45045;45.440;9.178;2023-08-31T06:30:42;25.20;94.60
32400;DHT22;45045;45.440;9.178;2023-08-31T06:33:15;25.20;94.60
32400;DHT22;45045;45.440;9.178;2023-08-31T06:35:41;25.20;94.60
32400;DHT22;45045;45.440;9.178;2023-08-31T06:38:06;25.20;94.60
32400;DHT22;45045;45.440;9.178;2023-08-31T06:40:32;25.30;94.60
32400;DHT22;45045;45.440;9.178;2023-08-31T06:42:58;25.30;94.70
32400;DHT22;45045;45.440;9.178;2023-08-31T06:45:25;25.30;94.70
32400;DHT22;45045;45.440;9.178;2023-08-31T06:47:50;25.30;94.60
32400;DHT22;45045;45.440;9.178;2023-08-31T06:50:16;25.30;94.70
32400;DHT22;45045;45.440;9.178;2023-08-31T06:52:42;25.30;94.70
32400;DHT22;45045;45.440;9.178;2023-08-31T06:55:09;25.30;94.70
32400;DHT22;45045;45.440;9.178;2023-08-31T06:57:36;25.30;94.70
32400;DHT22;45045;45.440;9.178;2023-08-31T07:00:03;25.30;95.00
32400;DHT22;45045;45.440;9.178;2023-08-31T07:02:29;25.30;95.60
32400;DHT22;45045;45.440;9.178;2023-08-31T07:04:55;25.30;95.40
32400;DHT22;45045;45.440;9.178;2023-08-31T07:07:20;25.30;95.40
32400;DHT22;45045;45.440;9.178;2023-08-31T07:09:47;25.40;95.40
32400;DHT22;45045;45.440;9.178;2023-08-31T07:12:13;25.40;95.20
32400;DHT22;45045;45.440;9.178;2023-08-31T07:14:39;25.40;95.10
32400;DHT22;45045;45.440;9.178;2023-08-31T07:17:05;25.40;95.00
32400;DHT22;45045;45.440;9.178;2023-08-31T07:19:30;25.40;94.90
32400;DHT22;45045;45.440;9.178;2023-08-31T07:21:56;25.40;94.90
32400;DHT22;45045;45.440;9.178;2023-08-31T07:24:24;25.50;94.80
32400;DHT22;45045;45.440;9.178;2023-08-31T07:26:50;25.50;94.80
32400;DHT22;45045;45.440;9.178;2023-08-31T07:29:16;25.50;94.80
32400;DHT22;45045;45.440;9.178;2023-08-31T07:31:42;25.50;94.80
32400;DHT22;45045;45.440;9.178;2023-08-31T07:34:07;25.40;94.80
32400;DHT22;45045;45.440;9.178;2023-08-31T07:36:33;25.50;95.00
32400;DHT22;45045;45.440;9.178;2023-08-31T07:38:59;25.60;94.90
32400;DHT22;45045;45.440;9.178;2023-08-31T07:41:24;25.50;95.10
32400;DHT22;45045;45.440;9.178;2023-08-31T07:43:50;25.60;94.90
32400;DHT22;45045;45.440;9.178;2023-08-31T07:46:17;25.60;94.80
32400;DHT22;45045;45.440;9.178;2023-08-31T07:48:43;25.70;95.00
32400;DHT22;45045;45.440;9.178;2023-08-31T07:51:08;25.70;94.60
32400;DHT22;45045;45.440;9.178;2023-08-31T07:53:34;25.70;94.60
32400;DHT22;45045;45.440;9.178;2023-08-31T07:56:00;25.80;94.80
32400;DHT22;45045;45.440;9.178;2023-08-31T07:58:26;25.80;95.00
32400;DHT22;45045;45.440;9.178;2023-08-31T08:00:55;25.90;94.90
32400;DHT22;45045;45.440;9.178;2023-08-31T08:03:22;25.90;94.50
32400;DHT22;45045;45.440;9.178;2023-08-31T08:05:48;25.90;94.40
32400;DHT22;45045;45.440;9.178;2023-08-31T08:08:13;26.00;94.70
32400;DHT22;45045;45.440;9.178;2023-08-31T08:10:39;26.00;94.60
32400;DHT22;45045;45.440;9.178;2023-08-31T08:13:05;26.00;95.00
32400;DHT22;45045;45.440;9.178;2023-08-31T08:15:31;26.00;94.30
32400;DHT22;45045;45.440;9.178;2023-08-31T08:17:57;26.10;94.70
32400;DHT22;45045;45.440;9.178;2023-08-31T08:20:23;26.20;94.60
32400;DHT22;45045;45.440;9.178;2023-08-31T08:22:49;26.10;94.20
32400;DHT22;45045;45.440;9.178;2023-08-31T08:25:19;26.20;95.00
32400;DHT22;45045;45.440;9.178;2023-08-31T08:27:44;26.20;94.50
32400;DHT22;45045;45.440;9.178;2023-08-31T08:30:10;26.20;94.10
32400;DHT22;45045;45.440;9.178;2023-08-31T08:32:36;26.20;94.30
32400;DHT22;45045;45.440;9.178;2023-08-31T08:35:02;26.30;94.30
32400;DHT22;45045;45.440;9.178;2023-08-31T08:37:28;26.30;94.50
32400;DHT22;45045;45.440;9.178;2023-08-31T08:39:54;26.40;94.10
32400;DHT22;45045;45.440;9.178;2023-08-31T08:42:22;26.30;93.80
32400;DHT22;45045;45.440;9.178;2023-08-31T08:44:49;26.30;94.10
32400;DHT22;45045;45.440;9.178;2023-08-31T08:47:15;26.40;94.00
32400;DHT22;45045;45.440;9.178;2023-08-31T08:49:42;26.40;93.80
32400;DHT22;45045;45.440;9.178;2023-08-31T08:52:09;26.40;93.60
32400;DHT22;45045;45.440;9.178;2023-08-31T08:54:35;26.60;94.10
32400;DHT22;45045;45.440;9.178;2023-08-31T08:57:01;26.60;93.80
32400;DHT22;45045;45.440;9.178;2023-08-31T08:59:30;26.60;93.40
32400;DHT22;45045;45.440;9.178;2023-08-31T09:01:56;26.70;93.90
32400;DHT22;45045;45.440;9.178;2023-08-31T09:04:22;26.70;93.50
32400;DHT22;45045;45.440;9.178;2023-08-31T09:06:48;26.70;93.60
32400;DHT22;45045;45.440;9.178;2023-08-31T09:09:13;26.70;93.50
32400;DHT22;45045;45.440;9.178;2023-08-31T09:11:39;26.80;93.60
32400;DHT22;45045;45.440;9.178;2023-08-31T09:16:46;26.80;93.00
32400;DHT22;45045;45.440;9.178;2023-08-31T09:19:20;26.80;93.00
32400;DHT22;45045;45.440;9.178;2023-08-31T09:21:50;27.00;93.10
32400;DHT22;45045;45.440;9.178;2023-08-31T09:24:17;27.10;92.60
32400;DHT22;45045;45.440;9.178;2023-08-31T09:26:47;27.00;92.70
32400;DHT22;45045;45.440;9.178;2023-08-31T09:29:13;26.90;92.90
32400;DHT22;45045;45.440;9.178;2023-08-31T09:31:42;27.00;93.20
32400;DHT22;45045;45.440;9.178;2023-08-31T09:34:09;27.20;93.10
32400;DHT22;45045;45.440;9.178;2023-08-31T09:36:35;27.20;92.80
32400;DHT22;45045;45.440;9.178;2023-08-31T09:39:01;27.30;93.00
32400;DHT22;45045;45.440;9.178;2023-08-31T09:41:27;27.40;93.00
32400;DHT22;45045;45.440;9.178;2023-08-31T09:43:54;27.50;92.20
32400;DHT22;45045;45.440;9.178;2023-08-31T09:46:21;27.60;92.80
32400;DHT22;45045;45.440;9.178;2023-08-31T09:48:47;27.50;92.50
32400;DHT22;45045;45.440;9.178;2023-08-31T09:51:14;27.60;92.10
32400;DHT22;45045;45.440;9.178;2023-08-31T09:53:42;27.70;92.10
32400;DHT22;45045;45.440;9.178;2023-08-31T09:56:13;27.80;92.10
32400;DHT22;45045;45.440;9.178;2023-08-31T09:58:42;27.80;92.00
32400;DHT22;45045;45.440;9.178;2023-08-31T10:01:08;27.90;91.60
32400;DHT22;45045;45.440;9.178;2023-08-31T10:03:34;27.90;91.80
32400;DHT22;45045;45.440;9.178;2023-08-31T10:06:00;27.90;91.40
32400;DHT22;45045;45.440;9.178;2023-08-31T10:08:27;28.00;91.80
32400;DHT22;45045;45.440;9.178;2023-08-31T10:11:00;28.20;91.30
32400;DHT22;45045;45.440;9.178;2023-08-31T10:13:31;28.30;91.00
32400;DHT22;45045;45.440;9.178;2023-08-31T10:15:57;28.40;90.60
32400;DHT22;45045;45.440;9.178;2023-08-31T10:18:23;28.40;90.20
32400;DHT22;45045;45.440;9.178;2023-08-31T10:20:49;28.40;90.00
32400;DHT22;45045;45.440;9.178;2023-08-31T10:23:15;28.30;90.00
32400;DHT22;45045;45.440;9.178;2023-08-31T10:28:26;28.10;89.90
32400;DHT22;45045;45.440;9.178;2023-08-31T10:31:09;28.20;90.30
32400;DHT22;45045;45.440;9.178;2023-08-31T10:33:46;28.40;90.20
32400;DHT22;45045;45.440;9.178;2023-08-31T10:36:16;28.30;90.10
32400;DHT22;45045;45.440;9.178;2023-08-31T10:39:27;28.50;89.80
32400;DHT22;45045;45.440;9.178;2023-08-31T10:41:35;28.60;88.20
32400;DHT22;45045;45.440;9.178;2023-08-31T10:44:00;28.70;88.80
32400;DHT22;45045;45.440;9.178;2023-08-31T10:46:43;28.60;89.10
32400;DHT22;45045;45.440;9.178;2023-08-31T10:51:45;28.40;88.40
32400;DHT22;45045;45.440;9.178;2023-08-31T10:54:29;28.30;88.70
32400;DHT22;45045;45.440;9.178;2023-08-31T10:59:53;28.70;89.00
32400;DHT22;45045;45.440;9.178;2023-08-31T11:02:37;28.70;88.60
32400;DHT22;45045;45.440;9.178;2023-08-31T11:07:43;28.60;88.70
32400;DHT22;45045;45.440;9.178;2023-08-31T11:10:20;28.60;88.90
32400;DHT22;45045;45.440;9.178;2023-08-31T11:12:49;28.60;88.00
32400;DHT22;45045;45.440;9.178;2023-08-31T11:15:18;28.60;88.20
32400;DHT22;45045;45.440;9.178;2023-08-31T11:17:44;28.70;88.50
32400;DHT22;45045;45.440;9.178;2023-08-31T11:20:19;28.90;89.00
32400;DHT22;45045;45.440;9.178;2023-08-31T11:22:49;28.90;87.10
32400;DHT22;45045;45.440;9.178;2023-08-31T11:25:17;29.00;86.30
32400;DHT22;45045;45.440;9.178;2023-08-31T11:27:56;29.00;87.10
32400;DHT22;45045;45.440;9.178;2023-08-31T11:30:22;29.10;86.50
32400;DHT22;45045;45.440;9.178;2023-08-31T11:32:51;29.20;86.40
32400;DHT22;45045;45.440;9.178;2023-08-31T11:35:18;29.30;85.50
32400;DHT22;45045;45.440;9.178;2023-08-31T11:37:44;29.40;85.30
32400;DHT22;45045;45.440;9.178;2023-08-31T11:40:14;29.50;84.00
32400;DHT22;45045;45.440;9.178;2023-08-31T11:42:42;29.50;84.90
32400;DHT22;45045;45.440;9.178;2023-08-31T11:45:10;29.30;84.30
32400;DHT22;45045;45.440;9.178;2023-08-31T11:47:36;29.50;84.60
32400;DHT22;45045;45.440;9.178;2023-08-31T11:50:05;29.20;83.40
32400;DHT22;45045;45.440;9.178;2023-08-31T11:52:31;29.50;82.00
32400;DHT22;45045;45.440;9.178;2023-08-31T11:54:57;29.30;80.10
32400;DHT22;45045;45.440;9.178;2023-08-31T11:57:26;29.30;81.60
32400;DHT22;45045;45.440;9.178;2023-08-31T11:59:54;29.40;82.00
32400;DHT22;45045;45.440;9.178;2023-08-31T12:02:21;29.50;80.20
32400;DHT22;45045;45.440;9.178;2023-08-31T12:04:47;29.60;81.20
32400;DHT22;45045;45.440;9.178;2023-08-31T12:07:17;29.70;81.30
32400;DHT22;45045;45.440;9.178;2023-08-31T12:09:44;29.80;80.40
32400;DHT22;45045;45.440;9.178;2023-08-31T12:12:10;29.80;78.00
32400;DHT22;45045;45.440;9.178;2023-08-31T12:14:37;29.80;78.80
32400;DHT22;45045;45.440;9.178;2023-08-31T12:17:08;29.80;78.90
32400;DHT22;45045;45.440;9.178;2023-08-31T12:19:37;30.00;79.00
32400;DHT22;45045;45.440;9.178;2023-08-31T12:22:03;30.00;80.00
32400;DHT22;45045;45.440;9.178;2023-08-31T12:24:29;30.00;79.00
32400;DHT22;45045;45.440;9.178;2023-08-31T12:26:55;30.10;79.70
32400;DHT22;45045;45.440;9.178;2023-08-31T12:29:21;30.20;79.60
32400;DHT22;45045;45.440;9.178;2023-08-31T12:31:47;30.30;78.80
32400;DHT22;45045;45.440;9.178;2023-08-31T12:34:13;30.20;78.10
32400;DHT22;45045;45.440;9.178;2023-08-31T12:36:39;30.20;78.50
32400;DHT22;45045;45.440;9.178;2023-08-31T12:39:07;30.20;78.40
32400;DHT22;45045;45.440;9.178;2023-08-31T12:41:35;30.20;78.20
32400;DHT22;45045;45.440;9.178;2023-08-31T12:44:02;30.00;77.90
32400;DHT22;45045;45.440;9.178;2023-08-31T12:46:29;29.90;77.90
32400;DHT22;45045;45.440;9.178;2023-08-31T12:48:54;30.10;77.10
32400;DHT22;45045;45.440;9.178;2023-08-31T12:51:20;30.20;76.40
32400;DHT22;45045;45.440;9.178;2023-08-31T12:53:46;30.10;76.70
32400;DHT22;45045;45.440;9.178;2023-08-31T12:56:12;30.20;77.00
32400;DHT22;45045;45.440;9.178;2023-08-31T12:58:38;30.40;76.10
32400;DHT22;45045;45.440;9.178;2023-08-31T13:01:04;30.60;75.30
32400;DHT22;45045;45.440;9.178;2023-08-31T13:03:30;30.50;74.70
32400;DHT22;45045;45.440;9.178;2023-08-31T13:05:55;30.50;74.90
32400;DHT22;45045;45.440;9.178;2023-08-31T13:08:21;30.50;74.40
32400;DHT22;45045;45.440;9.178;2023-08-31T13:10:54;30.50;75.20
32400;DHT22;45045;45.440;9.178;2023-08-31T13:13:20;30.60;74.30
32400;DHT22;45045;45.440;9.178;2023-08-31T13:15:49;30.60;71.60
32400;DHT22;45045;45.440;9.178;2023-08-31T13:18:15;30.60;70.50
32400;DHT22;45045;45.440;9.178;2023-08-31T13:20:51;30.60;72.10
32400;DHT22;45045;45.440;9.178;2023-08-31T13:23:17;30.50;72.90
32400;DHT22;45045;45.440;9.178;2023-08-31T13:25:43;30.60;72.40
32400;DHT22;45045;45.440;9.178;2023-08-31T13:28:09;30.80;72.20
32400;DHT22;45045;45.440;9.178;2023-08-31T13:30:35;30.70;72.40
32400;DHT22;45045;45.440;9.178;2023-08-31T13:33:00;30.60;73.00
32400;DHT22;45045;45.440;9.178;2023-08-31T13:35:27;30.80;73.40
32400;DHT22;45045;45.440;9.178;2023-08-31T13:37:52;30.90;73.00
32400;DHT22;45045;45.440;9.178;2023-08-31T13:40:18;30.70;72.90
32400;DHT22;45045;45.440;9.178;2023-08-31T13:42:57;30.70;74.80
32400;DHT22;45045;45.440;9.178;2023-08-31T13:45:25;30.80;74.40
32400;DHT22;45045;45.440;9.178;2023-08-31T13:47:51;30.90;73.20
32400;DHT22;45045;45.440;9.178;2023-08-31T13:50:16;30.80;73.50
32400;DHT22;45045;45.440;9.178;2023-08-31T13:52:42;30.60;73.90
32400;DHT22;45045;45.440;9.178;2023-08-31T13:55:08;30.50;74.20
32400;DHT22;45045;45.440;9.178;2023-08-31T13:57:34;30.80;72.40
32400;DHT22;45045;45.440;9.178;2023-08-31T14:00:00;30.90;72.90
32400;DHT22;45045;45.440;9.178;2023-08-31T14:02:26;30.60;72.80
32400;DHT22;45045;45.440;9.178;2023-08-31T14:04:53;30.40;73.90
32400;DHT22;45045;45.440;9.178;2023-08-31T14:07:19;30.70;72.60
32400;DHT22;45045;45.440;9.178;2023-08-31T14:09:45;30.80;72.70
32400;DHT22;45045;45.440;9.178;2023-08-31T14:12:10;30.70;72.50
32400;DHT22;45045;45.440;9.178;2023-08-31T14:14:36;30.60;72.90
32400;DHT22;45045;45.440;9.178;2023-08-31T14:17:02;30.60;73.30
32400;DHT22;45045;45.440;9.178;2023-08-31T14:19:29;30.80;72.90
32400;DHT22;45045;45.440;9.178;2023-08-31T14:21:57;30.90;72.40
32400;DHT22;45045;45.440;9.178;2023-08-31T14:24:23;30.80;72.80
32400;DHT22;45045;45.440;9.178;2023-08-31T14:26:49;30.90;72.10
32400;DHT22;45045;45.440;9.178;2023-08-31T14:29:14;30.70;72.50
32400;DHT22;45045;45.440;9.178;2023-08-31T14:31:41;30.40;72.70
32400;DHT22;45045;45.440;9.178;2023-08-31T14:34:07;30.60;72.50
32400;DHT22;45045;45.440;9.178;2023-08-31T14:36:32;30.60;72.00
32400;DHT22;45045;45.440;9.178;2023-08-31T14:39:00;30.60;72.20
32400;DHT22;45045;45.440;9.178;2023-08-31T14:41:26;30.70;71.60
32400;DHT22;45045;45.440;9.178;2023-08-31T14:43:52;30.40;72.00
32400;DHT22;45045;45.440;9.178;2023-08-31T14:46:18;30.20;72.00
32400;DHT22;45045;45.440;9.178;2023-08-31T14:48:43;30.40;72.80
32400;DHT22;45045;45.440;9.178;2023-08-31T14:51:09;30.60;73.10
32400;DHT22;45045;45.440;9.178;2023-08-31T14:53:35;30.60;72.80
32400;DHT22;45045;45.440;9.178;2023-08-31T14:56:01;30.80;72.40
32400;DHT22;45045;45.440;9.178;2023-08-31T14:58:26;30.90;72.30
32400;DHT22;45045;45.440;9.178;2023-08-31T15:00:55;30.80;72.10
32400;DHT22;45045;45.440;9.178;2023-08-31T15:03:21;30.70;71.40
32400;DHT22;45045;45.440;9.178;2023-08-31T15:05:49;30.70;71.40
32400;DHT22;45045;45.440;9.178;2023-08-31T15:08:15;30.70;71.50
32400;DHT22;45045;45.440;9.178;2023-08-31T15:10:41;30.60;72.20
32400;DHT22;45045;45.440;9.178;2023-08-31T15:13:07;30.70;72.10
32400;DHT22;45045;45.440;9.178;2023-08-31T15:15:32;30.60;72.80
32400;DHT22;45045;45.440;9.178;2023-08-31T15:17:58;30.40;73.30
32400;DHT22;45045;45.440;9.178;2023-08-31T15:20:26;30.60;73.60
32400;DHT22;45045;45.440;9.178;2023-08-31T15:22:53;30.60;73.70
32400;DHT22;45045;45.440;9.178;2023-08-31T15:25:19;30.70;73.20
32400;DHT22;45045;45.440;9.178;2023-08-31T15:27:44;30.60;73.20
32400;DHT22;45045;45.440;9.178;2023-08-31T15:30:11;30.80;73.10
32400;DHT22;45045;45.440;9.178;2023-08-31T15:32:37;30.80;73.20
32400;DHT22;45045;45.440;9.178;2023-08-31T15:35:03;30.80;72.90
32400;DHT22;45045;45.440;9.178;2023-08-31T15:37:30;30.90;73.00
32400;DHT22;45045;45.440;9.178;2023-08-31T15:39:56;30.90;72.90
32400;DHT22;45045;45.440;9.178;2023-08-31T15:42:25;30.90;73.10
32400;DHT22;45045;45.440;9.178;2023-08-31T15:44:51;30.70;73.00
32400;DHT22;45045;45.440;9.178;2023-08-31T15:47:18;30.80;73.20
32400;DHT22;45045;45.440;9.178;2023-08-31T15:49:44;30.70;73.30
32400;DHT22;45045;45.440;9.178;2023-08-31T15:52:10;30.70;73.50